sensor_id;sensor_type;location;lat;lon;timestamp;pressure;altitude;pressure_sealevel;temperature;humidity
83444;BME280;73374;41.170;-96.156;2024-03-02T00:04:35;96843.38;;;10.20;53.15
83444;BME280;73374;41.170;-96.156;2024-03-02T00:09:39;96842.69;;;9.95;54.58
83444;BME280;73374;41.170;-96.156;2024-03-02T00:14:43;96843.59;;;9.72;54.73
83444;BME280;73374;41.170;-96.156;2024-03-02T00:19:46;96840.13;;;9.48;55.80
83444;BME280;73374;41.170;-96.156;2024-03-02T00:24:50;96839.66;;;9.36;55.67
83444;BME280;73374;41.170;-96.156;2024-03-02T00:29:54;96844.41;;;9.17;56.00
83444;BME280;73374;41.170;-96.156;2024-03-02T00:34:57;96855.44;;;9.02;56.76
83444;BME280;73374;41.170;-96.156;2024-03-02T00:40:01;96864.22;;;8.85;57.27
83444;BME280;73374;41.170;-96.156;2024-03-02T00:45:08;96872.28;;;8.74;57.45
83444;BME280;73374;41.170;-96.156;2024-03-02T00:50:12;96882.97;;;8.71;57.53
83444;BME280;73374;41.170;-96.156;2024-03-02T00:55:29;96869.34;;;8.36;58.12
83444;BME280;73374;41.170;-96.156;2024-03-02T01:00:32;96879.78;;;8.19;59.69
83444;BME280;73374;41.170;-96.156;2024-03-02T01:05:35;96898.97;;;8.08;59.79
83444;BME280;73374;41.170;-96.156;2024-03-02T01:10:40;96903.34;;;8.15;58.78
83444;BME280;73374;41.170;-96.156;2024-03-02T01:15:43;96902.94;;;7.86;59.96
83444;BME280;73374;41.170;-96.156;2024-03-02T01:20:46;96911.13;;;7.73;60.55
83444;BME280;73374;41.170;-96.156;2024-03-02T01:25:51;96919.09;;;7.54;61.90
83444;BME280;73374;41.170;-96.156;2024-03-02T01:30:54;96914.09;;;7.52;61.65
83444;BME280;73374;41.170;-96.156;2024-03-02T01:35:57;96909.16;;;7.41;63.01
83444;BME280;73374;41.170;-96.156;2024-03-02T01:41:02;96910.91;;;7.33;63.12
83444;BME280;73374;41.170;-96.156;2024-03-02T01:46:05;96908.34;;;7.41;61.40
83444;BME280;73374;41.170;-96.156;2024-03-02T01:51:08;96910.56;;;7.10;63.97
83444;BME280;73374;41.170;-96.156;2024-03-02T01:56:13;96913.59;;;7.05;63.65
83444;BME280;73374;41.170;-96.156;2024-03-02T02:01:16;96913.97;;;6.92;64.38
83444;BME280;73374;41.170;-96.156;2024-03-02T02:06:19;96909.19;;;6.98;65.07
83444;BME280;73374;41.170;-96.156;2024-03-02T02:11:24;96917.97;;;6.87;64.71
83444;BME280;73374;41.170;-96.156;2024-03-02T02:16:28;96904.31;;;6.77;64.87
83444;BME280;73374;41.170;-96.156;2024-03-02T02:21:32;96902.34;;;6.71;65.59
83444;BME280;73374;41.170;-96.156;2024-03-02T02:26:35;96897.31;;;6.51;65.96
83444;BME280;73374;41.170;-96.156;2024-03-02T02:31:38;96904.56;;;6.48;66.97
83444;BME280;73374;41.170;-96.156;2024-03-02T02:36:43;96913.25;;;6.47;66.20
83444;BME280;73374;41.170;-96.156;2024-03-02T02:41:46;96922.66;;;6.38;66.57
83444;BME280;73374;41.170;-96.156;2024-03-02T02:46:49;96913.53;;;6.26;67.42
83444;BME280;73374;41.170;-96.156;2024-03-02T02:51:54;96928.06;;;6.27;67.05
83444;BME280;73374;41.170;-96.156;2024-03-02T02:56:57;96932.47;;;6.34;67.70
83444;BME280;73374;41.170;-96.156;2024-03-02T03:02:00;96929.38;;;6.31;68.31
83444;BME280;73374;41.170;-96.156;2024-03-02T03:07:05;96934.72;;;6.20;68.56
83444;BME280;73374;41.170;-96.156;2024-03-02T03:12:08;96944.09;;;6.21;67.98
83444;BME280;73374;41.170;-96.156;2024-03-02T03:17:11;96951.00;;;6.20;68.25
83444;BME280;73374;41.170;-96.156;2024-03-02T03:22:16;96960.72;;;6.09;69.42
83444;BME280;73374;41.170;-96.156;2024-03-02T03:27:19;96965.63;;;6.02;69.80
83444;BME280;73374;41.170;-96.156;2024-03-02T03:32:22;96977.97;;;5.89;70.01
83444;BME280;73374;41.170;-96.156;2024-03-02T03:37:27;96976.13;;;5.81;69.67
83444;BME280;73374;41.170;-96.156;2024-03-02T03:42:30;96968.97;;;5.75;69.77
83444;BME280;73374;41.170;-96.156;2024-03-02T03:47:33;96974.28;;;5.64;70.36
83444;BME280;73374;41.170;-96.156;2024-03-02T03:52:38;96966.16;;;5.59;71.18
83444;BME280;73374;41.170;-96.156;2024-03-02T03:57:41;96959.91;;;5.52;70.58
83444;BME280;73374;41.170;-96.156;2024-03-02T04:02:44;96962.38;;;5.43;71.99
83444;BME280;73374;41.170;-96.156;2024-03-02T04:07:48;96963.22;;;5.34;71.87
83444;BME280;73374;41.170;-96.156;2024-03-02T04:12:51;96950.06;;;5.28;72.37
83444;BME280;73374;41.170;-96.156;2024-03-02T04:17:55;96953.31;;;5.30;72.29
83444;BME280;73374;41.170;-96.156;2024-03-02T04:22:59;96936.25;;;5.19;71.68
83444;BME280;73374;41.170;-96.156;2024-03-02T04:28:02;96930.59;;;5.06;73.07
83444;BME280;73374;41.170;-96.156;2024-03-02T04:33:06;96935.75;;;4.96;73.49
83444;BME280;73374;41.170;-96.156;2024-03-02T04:38:10;96926.94;;;4.79;73.80
83444;BME280;73374;41.170;-96.156;2024-03-02T04:43:13;96930.31;;;4.61;74.57
83444;BME280;73374;41.170;-96.156;2024-03-02T04:48:16;96923.66;;;4.48;74.37
83444;BME280;73374;41.170;-96.156;2024-03-02T04:53:21;96919.84;;;4.33;74.77
83444;BME280;73374;41.170;-96.156;2024-03-02T04:58:24;96899.00;;;4.17;75.88
83444;BME280;73374;41.170;-96.156;2024-03-02T05:03:27;96924.03;;;4.24;76.08
83444;BME280;73374;41.170;-96.156;2024-03-02T05:08:32;96929.28;;;4.13;76.49
83444;BME280;73374;41.170;-96.156;2024-03-02T05:13:36;96947.00;;;4.07;76.58
83444;BME280;73374;41.170;-96.156;2024-03-02T05:18:39;96948.91;;;4.05;76.73
83444;BME280;73374;41.170;-96.156;2024-03-02T05:23:44;96945.91;;;4.00;76.52
83444;BME280;73374;41.170;-96.156;2024-03-02T05:28:47;96950.19;;;3.89;77.35
83444;BME280;73374;41.170;-96.156;2024-03-02T05:33:50;96951.75;;;3.81;77.38
83444;BME280;73374;41.170;-96.156;2024-03-02T05:39:00;96956.63;;;3.74;77.54
83444;BME280;73374;41.170;-96.156;2024-03-02T05:44:03;96962.53;;;3.65;77.79
83444;BME280;73374;41.170;-96.156;2024-03-02T05:49:06;96971.13;;;3.54;78.26
83444;BME280;73374;41.170;-96.156;2024-03-02T05:54:11;96958.09;;;3.46;78.67
83444;BME280;73374;41.170;-96.156;2024-03-02T05:59:14;96965.00;;;3.25;78.81
83444;BME280;73374;41.170;-96.156;2024-03-02T06:04:17;96961.31;;;3.18;79.60
83444;BME280;73374;41.170;-96.156;2024-03-02T06:09:21;96956.03;;;3.19;79.79
83444;BME280;73374;41.170;-96.156;2024-03-02T06:14:24;96957.97;;;3.06;79.60
83444;BME280;73374;41.170;-96.156;2024-03-02T06:19:28;96965.78;;;3.05;80.11
83444;BME280;73374;41.170;-96.156;2024-03-02T06:24:32;96969.00;;;2.97;80.29
83444;BME280;73374;41.170;-96.156;2024-03-02T06:29:35;96965.66;;;2.85;80.80
83444;BME280;73374;41.170;-96.156;2024-03-02T06:34:38;96960.94;;;2.69;81.13
83444;BME280;73374;41.170;-96.156;2024-03-02T06:39:43;96980.22;;;2.53;81.77
83444;BME280;73374;41.170;-96.156;2024-03-02T06:44:46;96981.16;;;2.52;81.63
83444;BME280;73374;41.170;-96.156;2024-03-02T06:49:49;96979.19;;;2.44;81.66
83444;BME280;73374;41.170;-96.156;2024-03-02T06:54:53;96966.97;;;2.36;82.37
83444;BME280;73374;41.170;-96.156;2024-03-02T06:59:57;96977.09;;;2.38;82.05
83444;BME280;73374;41.170;-96.156;2024-03-02T07:04:59;96968.22;;;2.42;82.39
83444;BME280;73374;41.170;-96.156;2024-03-02T07:10:04;96964.91;;;2.19;82.65
83444;BME280;73374;41.170;-96.156;2024-03-02T07:15:09;96969.09;;;2.20;82.73
83444;BME280;73374;41.170;-96.156;2024-03-02T07:20:12;96960.69;;;2.07;83.19
83444;BME280;73374;41.170;-96.156;2024-03-02T07:25:17;96966.66;;;2.07;83.62
83444;BME280;73374;41.170;-96.156;2024-03-02T07:30:23;96965.72;;;1.86;83.86
83444;BME280;73374;41.170;-96.156;2024-03-02T07:35:25;96985.41;;;1.86;84.13
83444;BME280;73374;41.170;-96.156;2024-03-02T07:40:30;96993.44;;;1.81;84.22
83444;BME280;73374;41.170;-96.156;2024-03-02T07:45:33;96976.19;;;1.72;84.70
83444;BME280;73374;41.170;-96.156;2024-03-02T07:50:36;96988.44;;;1.68;84.22
83444;BME280;73374;41.170;-96.156;2024-03-02T07:55:41;96981.56;;;1.69;85.14
83444;BME280;73374;41.170;-96.156;2024-03-02T08:00:44;96978.63;;;2.07;85.13
83444;BME280;73374;41.170;-96.156;2024-03-02T08:05:47;96984.38;;;2.10;84.57
83444;BME280;73374;41.170;-96.156;2024-03-02T08:10:51;96980.03;;;2.22;84.36
83444;BME280;73374;41.170;-96.156;2024-03-02T08:15:54;96976.81;;;2.09;84.13
83444;BME280;73374;41.170;-96.156;2024-03-02T08:20:57;96965.63;;;1.99;84.47
83444;BME280;73374;41.170;-96.156;2024-03-02T08:26:01;96956.75;;;1.69;84.75
83444;BME280;73374;41.170;-96.156;2024-03-02T08:31:04;96952.78;;;1.54;84.95
83444;BME280;73374;41.170;-96.156;2024-03-02T08:36:08;96947.00;;;1.41;84.61
83444;BME280;73374;41.170;-96.156;2024-03-02T08:41:13;96948.72;;;1.40;85.18
83444;BME280;73374;41.170;-96.156;2024-03-02T08:46:16;96945.72;;;1.58;85.45
83444;BME280;73374;41.170;-96.156;2024-03-02T08:51:19;96939.91;;;1.67;85.25
83444;BME280;73374;41.170;-96.156;2024-03-02T08:56:24;96940.00;;;1.65;85.39
83444;BME280;73374;41.170;-96.156;2024-03-02T09:01:27;96931.97;;;1.81;85.57
83444;BME280;73374;41.170;-96.156;2024-03-02T09:06:31;96935.69;;;1.88;85.17
83444;BME280;73374;41.170;-96.156;2024-03-02T09:11:36;96938.25;;;1.99;85.46
83444;BME280;73374;41.170;-96.156;2024-03-02T09:16:39;96935.69;;;2.10;85.54
83444;BME280;73374;41.170;-96.156;2024-03-02T09:21:42;96931.06;;;2.36;86.27
83444;BME280;73374;41.170;-96.156;2024-03-02T09:26:47;96933.63;;;2.36;86.61
83444;BME280;73374;41.170;-96.156;2024-03-02T09:31:50;96938.28;;;2.42;87.04
83444;BME280;73374;41.170;-96.156;2024-03-02T09:36:52;96927.72;;;2.25;87.49
83444;BME280;73374;41.170;-96.156;2024-03-02T09:41:58;96930.19;;;2.26;87.41
83444;BME280;73374;41.170;-96.156;2024-03-02T09:47:01;96924.00;;;2.29;87.92
83444;BME280;73374;41.170;-96.156;2024-03-02T09:52:05;96922.72;;;2.23;88.28
83444;BME280;73374;41.170;-96.156;2024-03-02T09:57:11;96926.34;;;2.21;88.94
83444;BME280;73374;41.170;-96.156;2024-03-02T10:02:14;96925.44;;;2.10;88.91
83444;BME280;73374;41.170;-96.156;2024-03-02T10:07:17;96921.38;;;1.97;89.44
83444;BME280;73374;41.170;-96.156;2024-03-02T10:12:22;96917.97;;;2.07;89.94
83444;BME280;73374;41.170;-96.156;2024-03-02T10:17:31;96910.88;;;1.89;90.04
83444;BME280;73374;41.170;-96.156;2024-03-02T10:22:34;96914.88;;;1.81;89.91
83444;BME280;73374;41.170;-96.156;2024-03-02T10:27:40;96899.97;;;1.75;90.36
83444;BME280;73374;41.170;-96.156;2024-03-02T10:32:47;96900.44;;;1.69;90.63
83444;BME280;73374;41.170;-96.156;2024-03-02T10:37:52;96912.66;;;1.55;90.46
83444;BME280;73374;41.170;-96.156;2024-03-02T10:42:57;96914.16;;;1.35;90.29
83444;BME280;73374;41.170;-96.156;2024-03-02T10:48:08;96914.16;;;1.24;91.15
83444;BME280;73374;41.170;-96.156;2024-03-02T10:53:11;96879.91;;;0.91;91.16
83444;BME280;73374;41.170;-96.156;2024-03-02T10:58:15;96911.19;;;0.95;91.64
83444;BME280;73374;41.170;-96.156;2024-03-02T11:03:19;96922.13;;;0.97;91.63
83444;BME280;73374;41.170;-96.156;2024-03-02T11:08:23;96918.59;;;0.86;92.22
83444;BME280;73374;41.170;-96.156;2024-03-02T11:13:32;96906.72;;;0.85;92.51
83444;BME280;73374;41.170;-96.156;2024-03-02T11:18:35;96903.00;;;0.78;92.38
83444;BME280;73374;41.170;-96.156;2024-03-02T11:23:39;96895.91;;;0.71;92.24
83444;BME280;73374;41.170;-96.156;2024-03-02T11:28:43;96904.16;;;0.74;92.63
83444;BME280;73374;41.170;-96.156;2024-03-02T11:33:46;96901.22;;;0.68;93.02
83444;BME280;73374;41.170;-96.156;2024-03-02T11:38:49;96906.44;;;0.66;93.14
83444;BME280;73374;41.170;-96.156;2024-03-02T11:43:54;96915.25;;;0.62;92.91
83444;BME280;73374;41.170;-96.156;2024-03-02T11:48:57;96907.00;;;0.58;93.69
83444;BME280;73374;41.170;-96.156;2024-03-02T11:54:01;96902.13;;;0.55;93.66
83444;BME280;73374;41.170;-96.156;2024-03-02T11:59:07;96908.75;;;0.58;93.32
83444;BME280;73374;41.170;-96.156;2024-03-02T12:04:10;96907.81;;;0.59;93.59
83444;BME280;73374;41.170;-96.156;2024-03-02T12:09:13;96912.13;;;0.58;93.75
83444;BME280;73374;41.170;-96.156;2024-03-02T12:14:18;96907.25;;;0.67;94.02
83444;BME280;73374;41.170;-96.156;2024-03-02T12:19:21;96913.75;;;0.59;94.76
83444;BME280;73374;41.170;-96.156;2024-03-02T12:24:25;96908.97;;;0.55;94.86
83444;BME280;73374;41.170;-96.156;2024-03-02T12:29:31;96903.22;;;0.40;94.47
83444;BME280;73374;41.170;-96.156;2024-03-02T12:34:34;96913.09;;;0.45;94.55
83444;BME280;73374;41.170;-96.156;2024-03-02T12:39:37;96923.06;;;0.37;94.70
83444;BME280;73374;41.170;-96.156;2024-03-02T12:44:42;96914.25;;;0.41;95.07
83444;BME280;73374;41.170;-96.156;2024-03-02T12:49:45;96927.78;;;0.30;95.08
83444;BME280;73374;41.170;-96.156;2024-03-02T12:54:48;96931.00;;;0.21;94.81
83444;BME280;73374;41.170;-96.156;2024-03-02T12:59:57;96933.78;;;0.18;94.83
83444;BME280;73374;41.170;-96.156;2024-03-02T13:05:00;96937.66;;;0.11;95.00
83444;BME280;73374;41.170;-96.156;2024-03-02T13:10:04;96924.88;;;0.11;94.99
83444;BME280;73374;41.170;-96.156;2024-03-02T13:15:10;96931.63;;;0.12;94.40
83444;BME280;73374;41.170;-96.156;2024-03-02T13:20:19;96925.69;;;0.11;94.89
83444;BME280;73374;41.170;-96.156;2024-03-02T13:25:25;96937.03;;;0.20;95.21
83444;BME280;73374;41.170;-96.156;2024-03-02T13:30:29;96933.31;;;0.24;94.45
83444;BME280;73374;41.170;-96.156;2024-03-02T13:35:32;96931.03;;;0.32;94.27
83444;BME280;73374;41.170;-96.156;2024-03-02T13:40:36;96923.38;;;0.32;94.69
83444;BME280;73374;41.170;-96.156;2024-03-02T13:45:40;96924.59;;;0.39;94.46
83444;BME280;73374;41.170;-96.156;2024-03-02T13:50:43;96934.03;;;0.50;94.48
83444;BME280;73374;41.170;-96.156;2024-03-02T13:55:46;96936.69;;;0.72;94.08
83444;BME280;73374;41.170;-96.156;2024-03-02T14:00:51;96943.97;;;0.89;93.47
83444;BME280;73374;41.170;-96.156;2024-03-02T14:05:54;96935.31;;;0.79;93.79
83444;BME280;73374;41.170;-96.156;2024-03-02T14:10:57;96931.25;;;0.77;93.32
83444;BME280;73374;41.170;-96.156;2024-03-02T14:16:02;96912.00;;;0.60;93.40
83444;BME280;73374;41.170;-96.156;2024-03-02T14:21:05;96918.09;;;1.05;94.05
83444;BME280;73374;41.170;-96.156;2024-03-02T14:26:08;96918.66;;;1.20;94.33
83444;BME280;73374;41.170;-96.156;2024-03-02T14:31:13;96916.97;;;1.43;93.97
83444;BME280;73374;41.170;-96.156;2024-03-02T14:36:16;96900.56;;;1.79;93.34
83444;BME280;73374;41.170;-96.156;2024-03-02T14:41:19;96899.84;;;1.88;92.97
83444;BME280;73374;41.170;-96.156;2024-03-02T14:46:24;96900.44;;;1.92;92.38
83444;BME280;73374;41.170;-96.156;2024-03-02T14:51:27;96861.31;;;2.54;91.36
83444;BME280;73374;41.170;-96.156;2024-03-02T14:56:30;96876.56;;;3.79;87.39
83444;BME280;73374;41.170;-96.156;2024-03-02T15:01:35;96883.28;;;4.10;83.31
83444;BME280;73374;41.170;-96.156;2024-03-02T15:06:38;96875.72;;;4.28;80.91
83444;BME280;73374;41.170;-96.156;2024-03-02T15:11:41;96871.94;;;5.47;78.72
83444;BME280;73374;41.170;-96.156;2024-03-02T15:16:48;96862.72;;;5.44;76.60
83444;BME280;73374;41.170;-96.156;2024-03-02T15:21:51;96854.25;;;6.52;75.69
83444;BME280;73374;41.170;-96.156;2024-03-02T15:26:54;96843.94;;;6.16;75.03
83444;BME280;73374;41.170;-96.156;2024-03-02T15:32:01;96843.88;;;6.44;74.47
83444;BME280;73374;41.170;-96.156;2024-03-02T15:37:04;96838.13;;;7.88;70.49
83444;BME280;73374;41.170;-96.156;2024-03-02T15:42:07;96830.09;;;7.56;72.02
83444;BME280;73374;41.170;-96.156;2024-03-02T15:47:12;96812.44;;;7.94;71.76
83444;BME280;73374;41.170;-96.156;2024-03-02T15:52:15;96800.09;;;8.71;69.46
83444;BME280;73374;41.170;-96.156;2024-03-02T15:57:18;96798.41;;;9.11;68.27
83444;BME280;73374;41.170;-96.156;2024-03-02T16:02:23;96799.03;;;10.30;65.79
83444;BME280;73374;41.170;-96.156;2024-03-02T16:07:26;96806.81;;;10.91;63.43
83444;BME280;73374;41.170;-96.156;2024-03-02T16:12:30;96793.28;;;10.43;66.37
83444;BME280;73374;41.170;-96.156;2024-03-02T16:17:34;96774.88;;;10.67;65.11
83444;BME280;73374;41.170;-96.156;2024-03-02T16:22:37;96783.00;;;11.61;62.96
83444;BME280;73374;41.170;-96.156;2024-03-02T16:27:40;96764.88;;;11.82;62.32
83444;BME280;73374;41.170;-96.156;2024-03-02T16:32:47;96751.94;;;12.10;62.02
83444;BME280;73374;41.170;-96.156;2024-03-02T16:37:50;96744.00;;;11.97;62.71
83444;BME280;73374;41.170;-96.156;2024-03-02T16:42:53;96741.56;;;11.95;61.32
83444;BME280;73374;41.170;-96.156;2024-03-02T16:47:58;96749.03;;;12.20;60.94
83444;BME280;73374;41.170;-96.156;2024-03-02T16:53:01;96739.22;;;12.99;58.60
83444;BME280;73374;41.170;-96.156;2024-03-02T16:58:04;96738.66;;;12.48;59.85
83444;BME280;73374;41.170;-96.156;2024-03-02T17:03:24;96722.13;;;13.18;57.92
83444;BME280;73374;41.170;-96.156;2024-03-02T17:08:27;96729.00;;;13.80;56.76
83444;BME280;73374;41.170;-96.156;2024-03-02T17:13:30;96702.56;;;14.16;55.89
83444;BME280;73374;41.170;-96.156;2024-03-02T17:18:35;96694.94;;;14.28;54.55
83444;BME280;73374;41.170;-96.156;2024-03-02T17:23:38;96689.25;;;15.03;52.57
83444;BME280;73374;41.170;-96.156;2024-03-02T17:28:41;96667.03;;;15.26;53.92
83444;BME280;73374;41.170;-96.156;2024-03-02T17:33:46;96659.72;;;16.61;50.12
83444;BME280;73374;41.170;-96.156;2024-03-02T17:38:49;96640.34;;;16.62;49.69
83444;BME280;73374;41.170;-96.156;2024-03-02T17:43:52;96634.31;;;15.48;52.38
83444;BME280;73374;41.170;-96.156;2024-03-02T17:48:56;96628.78;;;16.26;50.13
83444;BME280;73374;41.170;-96.156;2024-03-02T17:53:59;96614.91;;;16.62;48.80
83444;BME280;73374;41.170;-96.156;2024-03-02T17:59:03;96598.19;;;17.00;48.64
83444;BME280;73374;41.170;-96.156;2024-03-02T18:04:07;96576.91;;;17.08;48.25
83444;BME280;73374;41.170;-96.156;2024-03-02T18:09:11;96574.84;;;17.70;46.99
83444;BME280;73374;41.170;-96.156;2024-03-02T18:14:14;96555.50;;;18.18;46.74
83444;BME280;73374;41.170;-96.156;2024-03-02T18:19:19;96569.47;;;17.35;46.91
83444;BME280;73374;41.170;-96.156;2024-03-02T18:24:22;96539.47;;;18.78;44.97
83444;BME280;73374;41.170;-96.156;2024-03-02T18:29:25;96535.25;;;18.18;45.58
83444;BME280;73374;41.170;-96.156;2024-03-02T18:34:30;96530.25;;;19.49;43.51
83444;BME280;73374;41.170;-96.156;2024-03-02T18:39:33;96524.28;;;18.21;44.92
83444;BME280;73374;41.170;-96.156;2024-03-02T18:44:36;96516.81;;;18.65;44.21
83444;BME280;73374;41.170;-96.156;2024-03-02T18:49:44;96491.41;;;18.71;44.16
83444;BME280;73374;41.170;-96.156;2024-03-02T18:54:47;96459.88;;;20.00;42.60
83444;BME280;73374;41.170;-96.156;2024-03-02T18:59:50;96467.81;;;18.24;44.72
83444;BME280;73374;41.170;-96.156;2024-03-02T19:04:55;96440.38;;;19.17;43.34
83444;BME280;73374;41.170;-96.156;2024-03-02T19:09:58;96414.69;;;19.24;43.08
83444;BME280;73374;41.170;-96.156;2024-03-02T19:15:01;96421.47;;;19.37;42.82
83444;BME280;73374;41.170;-96.156;2024-03-02T19:20:07;96401.81;;;18.94;43.30
83444;BME280;73374;41.170;-96.156;2024-03-02T19:25:15;96375.06;;;18.85;43.67
83444;BME280;73374;41.170;-96.156;2024-03-02T19:30:18;96355.50;;;19.82;41.75
83444;BME280;73374;41.170;-96.156;2024-03-02T19:35:23;96352.84;;;19.26;42.31
83444;BME280;73374;41.170;-96.156;2024-03-02T19:40:26;96367.59;;;19.11;42.75
83444;BME280;73374;41.170;-96.156;2024-03-02T19:45:29;96328.19;;;19.93;40.79
83444;BME280;73374;41.170;-96.156;2024-03-02T19:50:34;96312.41;;;19.38;42.02
83444;BME280;73374;41.170;-96.156;2024-03-02T19:55:37;96294.78;;;19.55;41.62
83444;BME280;73374;41.170;-96.156;2024-03-02T20:00:40;96276.34;;;20.26;40.41
83444;BME280;73374;41.170;-96.156;2024-03-02T20:05:45;96265.63;;;19.45;42.15
83444;BME280;73374;41.170;-96.156;2024-03-02T20:10:48;96267.16;;;19.79;41.40
83444;BME280;73374;41.170;-96.156;2024-03-02T20:15:51;96228.88;;;19.99;40.88
83444;BME280;73374;41.170;-96.156;2024-03-02T20:20:56;96215.47;;;20.64;40.12
83444;BME280;73374;41.170;-96.156;2024-03-02T20:25:59;96239.75;;;19.80;40.61
83444;BME280;73374;41.170;-96.156;2024-03-02T20:31:02;96228.94;;;20.09;40.44
83444;BME280;73374;41.170;-96.156;2024-03-02T20:36:11;96202.06;;;20.12;40.55
83444;BME280;73374;41.170;-96.156;2024-03-02T20:41:15;96199.31;;;20.56;39.94
83444;BME280;73374;41.170;-96.156;2024-03-02T20:46:18;96189.13;;;20.10;40.14
83444;BME280;73374;41.170;-96.156;2024-03-02T20:51:23;96198.03;;;20.63;39.08
83444;BME280;73374;41.170;-96.156;2024-03-02T20:56:26;96179.91;;;20.72;39.05
83444;BME280;73374;41.170;-96.156;2024-03-02T21:01:29;96165.84;;;20.61;38.93
83444;BME280;73374;41.170;-96.156;2024-03-02T21:06:33;96155.78;;;21.58;37.84
83444;BME280;73374;41.170;-96.156;2024-03-02T21:11:36;96141.88;;;20.68;38.79
83444;BME280;73374;41.170;-96.156;2024-03-02T21:16:39;96145.16;;;20.90;38.01
83444;BME280;73374;41.170;-96.156;2024-03-02T21:21:44;96142.06;;;21.03;37.86
83444;BME280;73374;41.170;-96.156;2024-03-02T21:26:47;96158.75;;;20.67;39.26
83444;BME280;73374;41.170;-96.156;2024-03-02T21:31:50;96104.81;;;21.05;38.88
83444;BME280;73374;41.170;-96.156;2024-03-02T21:36:55;96092.88;;;21.70;37.92
83444;BME280;73374;41.170;-96.156;2024-03-02T21:41:58;96106.88;;;20.88;38.75
83444;BME280;73374;41.170;-96.156;2024-03-02T21:47:01;96103.25;;;21.09;38.44
83444;BME280;73374;41.170;-96.156;2024-03-02T21:52:10;96085.41;;;20.74;38.69
83444;BME280;73374;41.170;-96.156;2024-03-02T21:57:13;96081.88;;;21.16;38.04
83444;BME280;73374;41.170;-96.156;2024-03-02T22:02:16;96055.06;;;21.75;37.38
83444;BME280;73374;41.170;-96.156;2024-03-02T22:07:21;96065.06;;;21.37;38.17
83444;BME280;73374;41.170;-96.156;2024-03-02T22:12:24;96037.47;;;21.07;38.72
83444;BME280;73374;41.170;-96.156;2024-03-02T22:17:27;96037.94;;;20.84;39.13
83444;BME280;73374;41.170;-96.156;2024-03-02T22:22:31;96042.56;;;21.29;38.44
83444;BME280;73374;41.170;-96.156;2024-03-02T22:27:34;96012.75;;;21.44;37.86
83444;BME280;73374;41.170;-96.156;2024-03-02T22:32:40;96020.56;;;21.08;37.73
83444;BME280;73374;41.170;-96.156;2024-03-02T22:37:45;96025.28;;;20.96;37.73
83444;BME280;73374;41.170;-96.156;2024-03-02T22:42:48;96006.25;;;20.94;36.90
83444;BME280;73374;41.170;-96.156;2024-03-02T22:47:51;96011.22;;;20.75;36.31
83444;BME280;73374;41.170;-96.156;2024-03-02T22:52:55;96002.78;;;20.78;36.47
83444;BME280;73374;41.170;-96.156;2024-03-02T22:57:58;96010.16;;;20.71;36.48
83444;BME280;73374;41.170;-96.156;2024-03-02T23:03:02;96016.41;;;20.50;37.27
83444;BME280;73374;41.170;-96.156;2024-03-02T23:08:07;96013.66;;;20.40;37.16
83444;BME280;73374;41.170;-96.156;2024-03-02T23:13:10;96033.31;;;20.17;37.14
83444;BME280;73374;41.170;-96.156;2024-03-02T23:18:13;96032.84;;;20.30;37.11
83444;BME280;73374;41.170;-96.156;2024-03-02T23:23:18;96031.75;;;19.79;38.17
83444;BME280;73374;41.170;-96.156;2024-03-02T23:28:21;96038.91;;;19.56;38.84
83444;BME280;73374;41.170;-96.156;2024-03-02T23:33:24;96035.97;;;19.53;39.35
83444;BME280;73374;41.170;-96.156;2024-03-02T23:38:29;96024.16;;;19.28;39.92
83444;BME280;73374;41.170;-96.156;2024-03-02T23:43:32;96019.84;;;18.95;40.86
83444;BME280;73374;41.170;-96.156;2024-03-02T23:48:35;96023.28;;;18.96;40.87
83444;BME280;73374;41.170;-96.156;2024-03-02T23:53:40;96015.72;;;18.61;41.92
83444;BME280;73374;41.170;-96.156;2024-03-02T23:58:43;96011.13;;;18.29;42.68
